Time;durP1;ratioP1;P1;durP2;ratioP2;P2;SDS_P1;SDS_P2;PMS_P1;PMS_P2;Temp;Humidity;BMP_temperature;BMP_pressure;BME280_temperature;BME280_humidity;BME280_pressure;Samples;Min_cycle;Max_cycle;Signal;HPM_P1;HPM_P2
2023/04/10 00:01:04;;;;;;;17.30;14.20;;;;;;;6.13;86.35;101293.44;102740;277;118823;-58
2023/04/10 00:03:46;;;;;;;17.30;13.90;;;;;;;6.12;86.46;101288.45;102709;277;105370;-58
2023/04/10 00:06:22;;;;;;;19.60;14.40;;;;;;;6.09;86.27;101294.34;102741;277;114170;-59
2023/04/10 00:09:04;;;;;;;20.60;14.70;;;;;;;6.02;86.27;101296.55;102712;277;97229;-58
2023/04/10 00:11:43;;;;;;;20.10;14.40;;;;;;;5.97;86.38;101296.48;102764;277;97346;-60
2023/04/10 00:14:24;;;;;;;16.80;12.20;;;;;;;5.96;86.43;101296.42;102716;277;120701;-59
2023/04/10 00:17:02;;;;;;;20.60;14.90;;;;;;;5.92;86.38;101296.60;102749;277;105228;-58
2023/04/10 00:19:44;;;;;;;22.70;15.20;;;;;;;5.90;86.50;101290.98;102692;277;114435;-58
2023/04/10 00:22:31;;;;;;;20.70;15.10;;;;;;;5.90;86.53;101287.48;102735;277;94347;-61
2023/04/10 00:25:09;;;;;;;21.60;15.30;;;;;;;5.88;86.57;101295.49;102741;277;97914;-61
2023/04/10 00:27:47;;;;;;;22.30;14.80;;;;;;;5.83;86.91;101291.11;102726;277;120132;-62
2023/04/10 00:30:29;;;;;;;20.60;14.20;;;;;;;5.76;86.79;101289.98;102733;277;105039;-57
2023/04/10 00:33:09;;;;;;;18.40;14.20;;;;;;;5.69;86.70;101292.72;102708;277;116054;-57
2023/04/10 00:35:47;;;;;;;18.30;13.10;;;;;;;5.67;86.65;101294.70;102725;277;97105;-60
2023/04/10 00:38:28;;;;;;;17.10;12.80;;;;;;;5.65;86.76;101299.49;102726;277;97222;-61
2023/04/10 00:41:04;;;;;;;17.50;13.80;;;;;;;5.65;86.74;101297.53;102727;277;120443;-57
2023/04/10 00:43:48;;;;;;;18.70;14.30;;;;;;;5.63;86.66;101295.75;102746;277;106770;-57
2023/04/10 00:46:39;;;;;;;21.50;15.60;;;;;;;5.63;86.67;101292.41;102722;277;114923;-57
2023/04/10 00:49:23;;;;;;;19.10;14.10;;;;;;;5.56;86.52;101291.77;102721;277;95941;-57
2023/04/10 00:52:00;;;;;;;21.10;15.20;;;;;;;5.51;86.54;101290.63;102752;277;98255;-58
2023/04/10 00:54:40;;;;;;;22.20;17.90;;;;;;;5.48;86.72;101290.17;102698;277;120422;-57
2023/04/10 00:57:23;;;;;;;19.10;14.80;;;;;;;5.45;86.95;101287.91;102745;277;104372;-58
2023/04/10 00:59:59;;;;;;;20.10;15.90;;;;;;;5.43;87.01;101285.23;102741;277;114877;-57
2023/04/10 01:02:37;;;;;;;20.50;16.40;;;;;;;5.42;87.00;101285.52;102714;277;93488;-60
2023/04/10 01:05:14;;;;;;;20.20;15.40;;;;;;;5.41;86.92;101288.44;102740;277;96252;-59
2023/04/10 01:08:09;;;;;;;20.20;16.00;;;;;;;5.33;86.85;101285.51;102718;277;121035;-55
2023/04/10 01:10:55;;;;;;;19.00;15.80;;;;;;;5.28;86.88;101282.94;102756;277;105611;-57
2023/04/10 01:13:36;;;;;;;25.80;18.40;;;;;;;5.23;86.96;101288.05;102672;277;114295;-58
2023/04/10 01:16:23;;;;;;;21.50;16.10;;;;;;;5.19;86.94;101291.46;102757;277;96548;-59
2023/04/10 01:19:11;;;;;;;18.30;14.70;;;;;;;5.17;86.91;101290.68;102709;277;97925;-59
2023/04/10 01:21:57;;;;;;;22.70;17.70;;;;;;;5.15;86.98;101292.65;102732;277;121665;-58
2023/04/10 01:25:01;;;;;;;22.10;17.40;;;;;;;5.15;87.11;101297.00;102717;277;106408;-59
2023/04/10 01:27:59;;;;;;;21.60;16.20;;;;;;;5.14;87.19;101292.04;102716;277;115404;-58
2023/04/10 01:30:43;;;;;;;23.00;16.20;;;;;;;5.10;87.09;101294.15;102710;277;95391;-60
2023/04/10 01:33:21;;;;;;;24.30;17.60;;;;;;;5.06;87.13;101292.05;102740;277;97642;-61
2023/04/10 01:36:11;;;;;;;24.50;17.80;;;;;;;5.05;87.15;101292.98;102739;277;119693;-58
2023/04/10 01:38:50;;;;;;;23.30;18.00;;;;;;;5.05;87.13;101294.11;102710;277;104177;-58
2023/04/10 01:41:28;;;;;;;27.00;18.00;;;;;;;5.00;87.14;101299.77;102728;277;113526;-59
2023/04/10 01:44:11;;;;;;;26.10;18.40;;;;;;;4.97;87.18;101296.98;102509;277;94595;-58
2023/04/10 01:46:53;;;;;;;23.40;16.80;;;;;;;4.95;87.10;101297.48;102730;277;97709;-58
2023/04/10 01:49:31;;;;;;;22.10;16.40;;;;;;;4.95;87.20;101296.79;102712;277;121089;-57
2023/04/10 01:52:12;;;;;;;22.30;16.70;;;;;;;4.96;87.14;101297.91;102777;277;105883;-62
2023/04/10 01:54:52;;;;;;;21.80;16.70;;;;;;;4.97;87.17;101297.67;102716;277;114607;-61
2023/04/10 01:57:34;;;;;;;29.10;18.90;;;;;;;4.96;87.20;101297.41;102712;277;95191;-59
2023/04/10 02:00:14;;;;;;;23.30;17.80;;;;;;;4.91;87.33;101302.08;102739;277;97886;-62
2023/04/10 02:02:54;;;;;;;28.00;18.40;;;;;;;4.86;87.29;101300.76;102703;277;120632;-59
2023/04/10 02:05:40;;;;;;;29.40;19.90;;;;;;;4.83;87.26;101304.06;102735;277;106116;-58
2023/04/10 02:08:22;;;;;;;26.00;17.50;;;;;;;4.80;87.27;101304.82;102751;277;114612;-58
2023/04/10 02:11:06;;;;;;;28.00;19.20;;;;;;;4.79;87.31;101299.08;102737;277;96785;-58
2023/04/10 02:13:47;;;;;;;22.00;16.90;;;;;;;4.78;87.45;101298.27;102736;277;97666;-58
2023/04/10 02:16:26;;;;;;;22.60;16.30;;;;;;;4.82;87.63;101298.40;102747;277;120643;-56
2023/04/10 02:19:05;;;;;;;22.60;17.00;;;;;;;4.83;87.58;101300.45;102717;277;105554;-56
2023/04/10 02:21:45;;;;;;;21.90;16.00;;;;;;;4.79;87.62;101299.92;102744;277;114250;-61
2023/04/10 02:24:24;;;;;;;21.60;15.60;;;;;;;4.79;87.60;101296.86;102729;277;96430;-60
2023/04/10 02:27:06;;;;;;;20.80;15.80;;;;;;;4.77;87.63;101301.34;102761;277;97897;-56
2023/04/10 02:29:44;;;;;;;23.40;15.90;;;;;;;4.77;87.54;101301.91;102682;277;120425;-56
2023/04/10 02:32:18;;;;;;;34.50;22.50;;;;;;;4.76;87.59;101303.91;102707;277;105937;-59
2023/04/10 02:34:57;;;;;;;33.60;22.60;;;;;;;4.73;87.48;101305.80;102730;277;114132;-57
2023/04/10 02:37:38;;;;;;;29.30;19.30;;;;;;;4.70;87.57;101305.10;102745;277;96287;-59
2023/04/10 02:40:15;;;;;;;29.30;19.40;;;;;;;4.69;87.73;101305.05;102732;277;97955;-58
2023/04/10 02:42:53;;;;;;;30.10;19.70;;;;;;;4.69;87.67;101304.30;102710;277;120456;-55
2023/04/10 02:45:37;;;;;;;27.00;19.70;;;;;;;4.68;87.66;101304.24;102719;277;105601;-58
2023/04/10 02:48:16;;;;;;;26.90;18.10;;;;;;;4.63;87.80;101303.39;102713;277;114630;-58
2023/04/10 02:51:00;;;;;;;27.20;18.50;;;;;;;4.61;87.69;101302.67;102716;277;94237;-59
2023/04/10 02:53:43;;;;;;;27.70;17.70;;;;;;;4.60;87.77;101296.56;102742;277;98040;-59
2023/04/10 02:56:21;;;;;;;22.10;16.20;;;;;;;4.59;87.68;101300.23;102754;277;119940;-58
2023/04/10 02:59:03;;;;;;;25.30;17.60;;;;;;;4.53;87.71;101296.95;102703;277;105846;-56
2023/04/10 03:01:50;;;;;;;22.00;17.30;;;;;;;4.51;87.70;101299.82;102717;277;114704;-58
2023/04/10 03:04:37;;;;;;;24.40;17.00;;;;;;;4.48;87.70;101299.71;102736;277;94256;-58
2023/04/10 03:07:24;;;;;;;25.00;16.60;;;;;;;4.42;87.68;101298.14;102747;277;98023;-58
2023/04/10 03:10:07;;;;;;;26.60;19.00;;;;;;;4.35;87.75;101302.92;102691;277;120762;-59
2023/04/10 03:12:45;;;;;;;24.30;17.40;;;;;;;4.31;87.82;101307.77;102724;277;104879;-58
2023/04/10 03:15:28;;;;;;;27.00;19.10;;;;;;;4.30;87.75;101310.71;102723;277;114591;-59
2023/04/10 03:18:08;;;;;;;23.80;16.60;;;;;;;4.29;87.85;101306.65;102682;277;95094;-58
2023/04/10 03:20:51;;;;;;;23.70;17.70;;;;;;;4.25;87.71;101302.36;102688;277;98556;-58
2023/04/10 03:23:25;;;;;;;22.10;16.90;;;;;;;4.16;87.76;101304.33;102719;277;120688;-59
2023/04/10 03:26:04;;;;;;;22.80;16.10;;;;;;;4.08;87.85;101303.41;102760;277;103597;-61
2023/04/10 03:28:45;;;;;;;22.90;17.50;;;;;;;4.05;87.78;101300.84;102722;277;114052;-61
2023/04/10 03:31:30;;;;;;;27.60;18.10;;;;;;;4.04;87.94;101294.67;102717;277;95903;-57
2023/04/10 03:34:05;;;;;;;;;;;;;;;4.01;88.00;101296.72;102716;277;97625;-58
2023/04/10 03:36:43;;;;;;;24.50;17.30;;;;;;;3.96;87.89;101295.52;102758;277;120515;-60
2023/04/10 03:39:22;;;;;;;29.00;17.70;;;;;;;3.95;87.96;101298.44;102752;269;106085;-61
2023/04/10 03:42:05;;;;;;;26.70;18.80;;;;;;;3.98;88.10;101295.52;102718;277;114972;-56
2023/04/10 03:44:48;;;;;;;30.40;19.30;;;;;;;3.98;88.14;101296.75;102715;277;93096;-56
2023/04/10 03:47:23;;;;;;;27.50;17.40;;;;;;;3.95;88.11;101295.27;102737;277;97663;-60
2023/04/10 03:50:04;;;;;;;26.50;18.60;;;;;;;3.89;88.05;101295.53;102732;277;121052;-57
2023/04/10 03:52:42;;;;;;;26.60;18.70;;;;;;;3.88;88.18;101295.98;102743;277;106532;-56
2023/04/10 03:55:18;;;;;;;27.60;17.30;;;;;;;3.87;88.11;101296.28;102704;277;113692;-55
2023/04/10 03:58:03;;;;;;;27.80;17.30;;;;;;;3.86;88.25;101298.67;102358;277;467351;-61
2023/04/10 04:00:43;;;;;;;31.90;19.30;;;;;;;3.91;88.31;101298.96;102650;277;97660;-56
2023/04/10 04:03:18;;;;;;;33.10;20.00;;;;;;;3.97;88.38;101298.85;102678;277;120359;-56
2023/04/10 04:05:55;;;;;;;;;;;;;;;4.03;88.39;101305.08;102743;277;105975;-56
2023/04/10 04:08:37;;;;;;;33.70;21.50;;;;;;;4.08;88.52;101303.97;102721;277;114721;-56
2023/04/10 04:11:24;;;;;;;32.00;20.90;;;;;;;4.10;88.55;101309.65;102734;277;96014;-62
2023/04/10 04:14:04;;;;;;;34.50;20.80;;;;;;;4.15;88.78;101309.77;102701;277;96715;-61
2023/04/10 04:16:39;;;;;;;31.50;20.70;;;;;;;4.25;88.75;101316.50;102712;277;120203;-56
2023/04/10 04:19:14;;;;;;;29.50;20.00;;;;;;;4.32;88.74;101318.40;102766;277;106160;-55
2023/04/10 04:21:51;;;;;;;30.80;20.20;;;;;;;4.36;88.68;101320.91;102735;277;113720;-61
2023/04/10 04:24:31;;;;;;;26.60;19.00;;;;;;;4.36;88.93;101323.41;102703;277;95057;-61
2023/04/10 04:27:07;;;;;;;24.80;16.70;;;;;;;4.45;89.04;101326.41;102772;277;98120;-61
2023/04/10 04:29:51;;;;;;;26.60;17.60;;;;;;;4.53;89.32;101327.10;102739;277;118818;-60
2023/04/10 04:32:27;;;;;;;26.30;17.70;;;;;;;4.65;89.20;101328.55;102742;277;104294;-59
2023/04/10 04:35:07;;;;;;;24.20;16.80;;;;;;;4.73;89.27;101328.45;102709;277;115039;-60
2023/04/10 04:37:49;;;;;;;26.20;18.20;;;;;;;4.88;89.15;101336.47;102760;277;96155;-58
2023/04/10 04:40:29;;;;;;;22.80;16.20;;;;;;;5.03;88.98;101336.81;102743;277;96558;-59
2023/04/10 04:43:08;;;;;;;22.60;17.10;;;;;;;5.25;89.00;101341.12;102734;277;120644;-58
2023/04/10 04:45:50;;;;;;;27.00;17.40;;;;;;;5.53;89.03;101339.86;102765;277;105116;-57
2023/04/10 04:48:34;;;;;;;26.80;17.80;;;;;;;5.72;88.84;101337.81;102732;277;114636;-55
2023/04/10 04:51:10;;;;;;;28.00;17.20;;;;;;;5.89;88.63;101339.59;102683;277;97548;-58
2023/04/10 04:53:45;;;;;;;27.50;16.80;;;;;;;5.99;88.72;101342.98;102700;277;96930;-59
2023/04/10 04:56:24;;;;;;;22.70;15.50;;;;;;;6.22;89.01;101346.77;102734;277;119262;-56
2023/04/10 04:59:06;;;;;;;22.00;15.20;;;;;;;6.56;89.16;101345.59;102740;277;104512;-56
2023/04/10 05:01:47;;;;;;;19.10;14.60;;;;;;;6.88;88.98;101345.08;102712;277;113785;-58
2023/04/10 05:04:28;;;;;;;18.00;14.10;;;;;;;7.11;88.99;101345.27;102709;277;94503;-59
2023/04/10 05:07:06;;;;;;;19.70;14.10;;;;;;;7.35;89.17;101344.20;102725;277;97262;-61
2023/04/10 05:09:46;;;;;;;19.30;14.30;;;;;;;7.70;89.16;101343.30;102670;277;120799;-61
2023/04/10 05:12:24;;;;;;;16.90;12.40;;;;;;;8.05;88.94;101347.97;102739;277;105848;-60
2023/04/10 05:15:04;;;;;;;19.80;12.60;;;;;;;8.25;88.80;101350.61;102703;277;114669;-62
2023/04/10 05:17:49;;;;;;;19.90;13.50;;;;;;;8.49;88.97;101354.09;102764;277;94476;-60
2023/04/10 05:20:34;;;;;;;18.70;13.90;;;;;;;8.83;88.99;101350.04;102735;277;97130;-61
2023/04/10 05:23:15;;;;;;;16.70;13.60;;;;;;;9.09;88.60;101349.55;102674;277;120911;-61
2023/04/10 05:26:02;;;;;;;17.40;12.70;;;;;;;9.45;88.19;101347.73;102746;277;105827;-59
2023/04/10 05:28:46;;;;;;;13.70;11.80;;;;;;;10.12;87.88;101350.37;102711;277;114353;-58
2023/04/10 05:31:26;;;;;;;15.60;12.40;;;;;;;10.87;87.56;101351.86;102697;277;93661;-57
2023/04/10 05:34:10;;;;;;;17.70;13.60;;;;;;;11.65;86.88;101347.77;102704;277;96619;-56
2023/04/10 05:36:50;;;;;;;14.40;12.80;;;;;;;12.72;86.23;101349.04;102732;277;120240;-56
2023/04/10 05:39:32;;;;;;;15.10;12.90;;;;;;;13.84;85.83;101345.23;102737;277;106219;-57
2023/04/10 05:42:13;;;;;;;13.40;12.00;;;;;;;14.47;84.89;101349.17;102725;277;113957;-59
2023/04/10 05:44:56;;;;;;;14.70;12.80;;;;;;;14.98;83.52;101346.91;102699;277;94041;-59
2023/04/10 05:47:35;;;;;;;13.80;12.40;;;;;;;15.55;81.72;101345.25;102743;277;97729;-58
2023/04/10 05:50:13;;;;;;;13.70;12.10;;;;;;;15.51;81.13;101348.05;102711;277;119945;-58
2023/04/10 05:52:56;;;;;;;11.90;10.70;;;;;;;15.42;80.90;101348.81;102745;277;106366;-61
2023/04/10 05:55:40;;;;;;;11.60;10.30;;;;;;;15.08;80.15;101349.65;102732;277;113947;-59
2023/04/10 05:58:16;;;;;;;11.30;10.10;;;;;;;15.41;80.11;101344.90;102691;277;94130;-59
2023/04/10 06:01:01;;;;;;;11.60;10.40;;;;;;;16.16;78.80;101340.87;102759;277;97968;-62
2023/04/10 06:03:43;;;;;;;13.10;10.00;;;;;;;15.69;77.42;101344.46;102720;277;118581;-62
2023/04/10 06:06:23;;;;;;;11.70;9.90;;;;;;;15.05;77.30;101348.66;102739;277;106096;-59
2023/04/10 06:09:06;;;;;;;11.00;9.90;;;;;;;14.98;76.97;101354.41;102711;277;115332;-59
2023/04/10 06:11:42;;;;;;;12.40;11.20;;;;;;;14.95;76.64;101354.09;102751;277;93137;-61
2023/04/10 06:14:24;;;;;;;10.70;9.60;;;;;;;14.63;76.09;101353.90;102750;277;98715;-62
2023/04/10 06:17:03;;;;;;;12.00;10.60;;;;;;;14.45;76.05;101356.14;102761;277;120827;-59
2023/04/10 06:19:44;;;;;;;11.40;10.30;;;;;;;14.46;75.84;101360.20;102742;277;105322;-59
2023/04/10 06:22:21;;;;;;;12.80;10.80;;;;;;;14.82;75.85;101363.25;102727;277;114958;-61
2023/04/10 06:24:58;;;;;;;12.00;10.70;;;;;;;16.10;76.35;101354.71;102740;277;94846;-59
2023/04/10 06:27:45;;;;;;;11.80;10.60;;;;;;;18.09;75.29;101352.96;102729;277;97579;-59
2023/04/10 06:30:27;;;;;;;13.40;10.60;;;;;;;19.50;74.27;101352.40;102759;277;120763;-58
2023/04/10 06:33:01;;;;;;;11.60;10.40;;;;;;;20.27;72.81;101346.61;102718;277;104743;-58
2023/04/10 06:35:39;;;;;;;10.50;9.40;;;;;;;20.85;71.17;101345.28;102752;277;114242;-61
2023/04/10 06:38:22;;;;;;;10.60;9.60;;;;;;;21.36;69.61;101344.73;102754;266;94099;-62
2023/04/10 06:41:04;;;;;;;10.90;9.90;;;;;;;21.86;67.31;101348.36;102735;277;98382;-57
2023/04/10 06:43:41;;;;;;;10.90;9.50;;;;;;;22.47;66.33;101350.52;102693;277;120763;-57
2023/04/10 06:46:25;;;;;;;10.50;9.50;;;;;;;22.63;64.66;101354.61;102754;277;104770;-62
2023/04/10 06:49:06;;;;;;;10.70;9.50;;;;;;;22.72;64.32;101357.62;102726;277;114573;-62
2023/04/10 06:51:44;;;;;;;10.30;9.10;;;;;;;22.97;63.39;101354.56;102763;277;94938;-61
2023/04/10 06:54:21;;;;;;;10.80;9.60;;;;;;;23.01;62.96;101359.66;102750;277;96709;-62
2023/04/10 06:56:59;;;;;;;10.60;9.60;;;;;;;23.28;61.62;101358.88;102712;277;119567;-56
2023/04/10 06:59:37;;;;;;;11.10;10.00;;;;;;;23.27;60.89;101356.82;102715;277;104646;-56
2023/04/10 07:02:12;;;;;;;12.00;9.90;;;;;;;23.43;60.44;101357.98;102728;277;113756;-57
2023/04/10 07:04:53;;;;;;;10.40;9.40;;;;;;;23.87;60.09;101352.62;102724;277;94490;-57
2023/04/10 07:07:33;;;;;;;9.90;8.70;;;;;;;24.45;59.17;101348.18;102695;277;98479;-62
2023/04/10 07:10:09;;;;;;;11.50;9.00;;;;;;;25.02;58.07;101348.30;102738;277;120355;-62
2023/04/10 07:12:50;;;;;;;9.30;8.40;;;;;;;25.54;56.55;101348.06;102743;277;105249;-60
2023/04/10 07:15:34;;;;;;;10.60;7.90;;;;;;;25.96;55.48;101345.75;102743;277;114014;-61
2023/04/10 07:18:11;;;;;;;8.30;7.50;;;;;;;26.23;55.20;101346.92;102732;277;94069;-62
2023/04/10 07:20:47;;;;;;;9.60;8.70;;;;;;;26.53;54.33;101348.88;102756;277;97241;-60
2023/04/10 07:23:29;;;;;;;9.20;8.30;;;;;;;26.53;53.09;101348.98;102742;277;119804;-60
2023/04/10 07:26:09;;;;;;;9.00;8.10;;;;;;;26.73;52.98;101348.06;102758;277;105950;-59
2023/04/10 07:28:49;;;;;;;9.10;8.10;;;;;;;26.76;52.31;101349.19;102737;277;115698;-60
2023/04/10 07:31:32;;;;;;;8.20;7.40;;;;;;;26.89;51.03;101347.45;102741;277;94837;-57
2023/04/10 07:34:13;;;;;;;8.10;7.40;;;;;;;26.74;50.57;101352.05;102720;277;98043;-57
2023/04/10 07:36:59;;;;;;;8.60;7.90;;;;;;;27.03;50.65;101355.41;102716;277;120431;-59
2023/04/10 07:39:36;;;;;;;8.80;7.60;;;;;;;27.20;49.57;101359.08;102730;277;103990;-60
2023/04/10 07:42:12;;;;;;;8.40;7.50;;;;;;;27.22;49.64;101359.98;102766;277;115176;-59
2023/04/10 07:44:50;;;;;;;8.20;7.50;;;;;;;27.23;49.06;101362.21;102720;277;94962;-59
2023/04/10 07:47:30;;;;;;;7.80;7.10;;;;;;;27.21;48.92;101363.16;102754;277;98278;-59
2023/04/10 07:50:05;;;;;;;7.80;7.10;;;;;;;27.25;48.53;101360.71;102717;277;119533;-59
2023/04/10 07:52:42;;;;;;;7.90;7.10;;;;;;;27.49;48.16;101361.74;102751;277;105009;-59
2023/04/10 07:55:23;;;;;;;7.60;6.90;;;;;;;27.54;47.68;101363.58;102702;277;115239;-60
2023/04/10 07:57:58;;;;;;;6.90;6.30;;;;;;;27.53;46.93;101360.98;102749;277;93329;-59
2023/04/10 08:00:37;;;;;;;7.00;6.30;;;;;;;27.52;46.83;101360.52;102780;277;97885;-57
2023/04/10 08:03:21;;;;;;;6.20;5.60;;;;;;;27.92;46.28;101356.36;102733;277;118494;-57
2023/04/10 08:05:57;;;;;;;6.80;6.20;;;;;;;27.79;46.03;101352.45;102723;277;105934;-59
2023/04/10 08:08:36;;;;;;;7.70;6.60;;;;;;;27.93;45.18;101355.14;102717;277;115398;-60
2023/04/10 08:11:28;;;;;;;6.40;5.80;;;;;;;27.91;45.19;101353.14;102749;277;94000;-59
2023/04/10 08:14:16;;;;;;;6.70;6.00;;;;;;;27.93;43.88;101353.69;102761;277;97523;-60
2023/04/10 08:16:59;;;;;;;6.40;5.80;;;;;;;27.46;43.95;101352.86;102729;277;120523;-63
2023/04/10 08:19:40;;;;;;;6.40;5.60;;;;;;;27.36;44.80;101351.89;102740;277;106211;-62
2023/04/10 08:22:22;;;;;;;6.50;5.90;;;;;;;27.60;44.78;101348.75;102739;277;112816;-57
2023/04/10 08:25:07;;;;;;;6.00;5.10;;;;;;;27.16;44.02;101345.95;102724;277;94743;-58
2023/04/10 08:27:43;;;;;;;7.40;6.00;;;;;;;26.57;43.76;101340.75;102756;273;98180;-62
2023/04/10 08:30:26;;;;;;;6.20;5.50;;;;;;;26.94;44.12;101345.85;102699;277;121446;-62
2023/04/10 08:33:05;;;;;;;5.60;5.10;;;;;;;27.43;43.73;101341.92;102727;277;105622;-55
2023/04/10 08:35:47;;;;;;;6.00;5.50;;;;;;;27.68;43.85;101339.41;102729;277;114712;-60
2023/04/10 08:38:35;;;;;;;7.70;5.50;;;;;;;27.84;43.15;101338.71;102705;277;94494;-59
2023/04/10 08:41:14;;;;;;;6.80;5.20;;;;;;;27.90;42.54;101338.96;102737;277;97935;-59
2023/04/10 08:43:56;;;;;;;7.00;5.60;;;;;;;27.67;43.04;101337.19;102732;277;121441;-58
2023/04/10 08:46:35;;;;;;;6.40;5.70;;;;;;;27.58;42.99;101339.14;102756;277;104820;-57
2023/04/10 08:49:27;;;;;;;6.30;5.50;;;;;;;27.49;43.17;101331.66;102698;277;114885;-57
2023/04/10 08:52:09;;;;;;;6.30;5.70;;;;;;;27.76;43.14;101330.07;102710;277;93614;-57
2023/04/10 08:54:54;;;;;;;5.20;4.70;;;;;;;28.05;42.27;101325.52;102757;277;96655;-57
2023/04/10 08:57:37;;;;;;;6.40;5.60;;;;;;;27.63;40.93;101332.89;102743;277;119630;-62
2023/04/10 09:00:13;;;;;;;;;;;;;;;27.58;40.37;101330.48;102791;277;103518;-63
2023/04/10 09:02:56;;;;;;;5.90;5.30;;;;;;;27.47;40.72;101326.92;102732;277;114952;-58
2023/04/10 09:05:36;;;;;;;6.30;4.60;;;;;;;26.83;41.12;101319.83;102726;277;93973;-59
2023/04/10 09:08:23;;;;;;;5.70;5.10;;;;;;;27.08;40.91;101321.07;102768;277;96757;-58
2023/04/10 09:11:02;;;;;;;5.30;4.70;;;;;;;27.03;41.20;101321.30;102706;277;119124;-59
2023/04/10 09:13:47;;;;;;;5.20;4.70;;;;;;;26.87;41.44;101318.33;102687;277;105793;-60
2023/04/10 09:16:33;;;;;;;5.70;4.50;;;;;;;26.06;41.48;101314.12;102754;277;114507;-61
2023/04/10 09:19:13;;;;;;;6.60;4.70;;;;;;;26.29;41.95;101313.09;102728;277;95129;-62
2023/04/10 09:22:04;;;;;;;5.70;5.10;;;;;;;25.91;41.55;101305.35;102684;277;97726;-60
2023/04/10 09:24:42;;;;;;;5.40;4.80;;;;;;;25.42;42.19;101305.33;102678;277;121692;-59
2023/04/10 09:27:32;;;;;;;4.90;4.40;;;;;;;25.55;42.55;101305.52;102772;277;104313;-57
2023/04/10 09:30:35;;;;;;;4.80;4.20;;;;;;;25.02;42.20;101309.95;102744;277;114675;-57
2023/04/10 09:33:27;;;;;;;4.70;3.70;;;;;;;24.16;42.31;101307.86;102693;277;93265;-62
2023/04/10 09:36:13;;;;;;;4.50;3.70;;;;;;;23.64;42.58;101306.20;102749;277;95889;-62
2023/04/10 09:38:54;;;;;;;7.30;3.50;;;;;;;23.44;43.18;101307.53;102716;277;120444;-62
2023/04/10 09:41:30;;;;;;;4.70;3.20;;;;;;;23.37;43.52;101302.46;102770;277;105297;-57
2023/04/10 09:44:19;;;;;;;4.50;3.40;;;;;;;23.53;43.09;101300.46;102703;277;114742;-57
2023/04/10 09:46:55;;;;;;;5.40;3.30;;;;;;;23.31;43.37;101295.36;102737;277;94360;-59
2023/04/10 09:49:48;;;;;;;5.10;3.20;;;;;;;22.97;43.63;101296.69;102728;277;98441;-59
2023/04/10 09:52:31;;;;;;;5.10;3.20;;;;;;;22.63;43.68;101293.46;102774;277;119269;-62
2023/04/10 09:55:20;;;;;;;4.40;3.40;;;;;;;22.42;43.92;101293.92;102721;277;106243;-63
2023/04/10 09:57:57;;;;;;;5.10;3.60;;;;;;;22.20;43.95;101284.52;102740;277;113048;-60
2023/04/10 10:00:33;;;;;;;3.80;3.10;;;;;;;22.26;43.85;101280.84;102756;277;95340;-59
2023/04/10 10:03:11;;;;;;;5.90;3.20;;;;;;;22.31;44.20;101278.73;102747;277;97629;-59
2023/04/10 10:05:54;;;;;;;5.00;3.10;;;;;;;22.14;44.87;101276.85;102753;277;120395;-59
2023/04/10 10:08:39;;;;;;;5.40;3.30;;;;;;;21.93;45.33;101271.39;102749;277;104682;-59
2023/04/10 10:11:21;;;;;;;4.90;2.70;;;;;;;22.00;44.90;101272.48;102735;277;113379;-57
2023/04/10 10:14:01;;;;;;;5.50;3.40;;;;;;;21.75;44.31;101272.12;102721;277;93048;-56
2023/04/10 10:16:46;;;;;;;6.40;2.90;;;;;;;21.69;44.34;101266.77;102732;277;97403;-59
2023/04/10 10:19:33;;;;;;;4.70;3.40;;;;;;;21.77;44.41;101259.13;102731;277;120539;-58
2023/04/10 10:22:17;;;;;;;6.20;3.00;;;;;;;21.87;44.84;101256.67;102720;277;105507;-63
2023/04/10 10:24:56;;;;;;;4.50;3.00;;;;;;;21.73;45.27;101256.52;102715;277;113583;-61
2023/04/10 10:27:36;;;;;;;4.30;3.00;;;;;;;21.44;45.44;101257.83;102736;277;93289;-60
2023/04/10 10:30:16;;;;;;;5.10;2.90;;;;;;;21.19;44.99;101253.13;102715;277;97676;-58
2023/04/10 10:33:00;;;;;;;4.50;3.60;;;;;;;21.30;45.39;101249.09;102700;277;121420;-59
2023/04/10 10:35:38;;;;;;;3.70;2.80;;;;;;;21.12;45.93;101246.27;102521;277;106191;-59
2023/04/10 10:38:16;;;;;;;7.00;3.10;;;;;;;20.97;45.25;101247.09;102720;277;113580;-59
2023/04/10 10:41:02;;;;;;;4.20;3.00;;;;;;;20.78;45.13;101245.69;102727;277;94751;-59
2023/04/10 10:43:52;;;;;;;4.60;3.00;;;;;;;20.46;44.77;101240.73;102707;277;98008;-59
2023/04/10 10:46:39;;;;;;;3.20;2.60;;;;;;;20.44;45.85;101240.61;102699;265;120599;-59
2023/04/10 10:49:19;;;;;;;4.30;2.50;;;;;;;20.72;46.37;101238.92;102723;277;106153;-59
2023/04/10 10:51:57;;;;;;;4.00;3.00;;;;;;;20.61;45.29;101243.10;102742;277;114622;-59
2023/04/10 10:54:41;;;;;;;4.80;2.80;;;;;;;20.41;45.29;101236.64;102730;277;95491;-60
2023/04/10 10:57:54;;;;;;;4.80;2.60;;;;;;;20.51;46.06;101236.20;102742;277;96993;-59
2023/04/10 11:01:16;;;;;;;3.70;2.50;;;;;;;20.62;46.20;101234.61;102773;277;121683;-56
2023/04/10 11:03:54;;;;;;;5.30;3.00;;;;;;;20.79;45.56;101230.11;102579;277;105670;-56
2023/04/10 11:06:55;;;;;;;3.90;2.60;;;;;;;20.55;45.79;101229.33;102725;277;112504;-59
2023/04/10 11:09:53;;;;;;;4.40;2.40;;;;;;;20.29;45.97;101230.02;102712;277;93730;-59
2023/04/10 11:12:28;;;;;;;3.80;2.60;;;;;;;20.00;45.30;101232.16;102723;277;97627;-56
2023/04/10 11:15:06;;;;;;;4.50;2.80;;;;;;;20.10;45.25;101223.83;102748;277;120988;-56
2023/04/10 11:17:55;;;;;;;4.30;2.40;;;;;;;20.36;45.18;101220.02;102737;277;104659;-63
2023/04/10 11:20:52;;;;;;;4.70;2.40;;;;;;;20.44;45.22;101218.38;102728;277;114551;-59
2023/04/10 11:23:32;;;;;;;4.70;3.00;;;;;;;20.38;45.49;101208.77;102723;277;94635;-57
2023/04/10 11:26:14;;;;;;;4.00;2.60;;;;;;;20.25;45.51;101206.39;102763;277;97801;-58
2023/04/10 11:28:56;;;;;;;3.90;2.90;;;;;;;20.22;46.04;101199.71;102753;277;120853;-57
2023/04/10 11:31:37;;;;;;;3.80;2.60;;;;;;;20.26;46.14;101200.05;102732;277;104983;-58
2023/04/10 11:34:20;;;;;;;3.30;2.70;;;;;;;19.95;46.43;101192.69;102721;277;114625;-59
2023/04/10 11:37:06;;;;;;;5.30;2.70;;;;;;;19.81;46.56;101192.23;102736;277;94386;-59
2023/04/10 11:39:42;;;;;;;4.40;3.10;;;;;;;19.87;46.87;101191.79;102701;277;97889;-59
2023/04/10 11:42:26;;;;;;;3.70;3.00;;;;;;;19.75;46.77;101192.83;102767;277;119446;-62
2023/04/10 11:45:27;;;;;;;4.60;3.60;;;;;;;19.62;47.06;101187.12;102741;277;105457;-63
2023/04/10 11:48:04;;;;;;;7.10;3.50;;;;;;;19.60;47.59;101188.96;102734;277;114332;-59
2023/04/10 11:50:41;;;;;;;5.30;3.20;;;;;;;19.83;47.54;101178.75;102705;277;93917;-59
2023/04/10 11:53:30;;;;;;;4.80;3.00;;;;;;;19.84;47.16;101174.70;102761;277;95993;-60
2023/04/10 11:56:18;;;;;;;4.40;3.00;;;;;;;19.87;46.65;101175.16;102721;277;121935;-59
2023/04/10 11:59:12;;;;;;;5.20;3.20;;;;;;;19.96;46.64;101167.92;102157;277;564728;-59
2023/04/10 12:01:52;;;;;;;4.40;2.90;;;;;;;19.98;46.24;101165.73;102699;277;115757;-56
2023/04/10 12:04:31;;;;;;;4.60;3.10;;;;;;;19.94;46.35;101160.56;102717;277;95287;-56
2023/04/10 12:07:13;;;;;;;6.10;2.80;;;;;;;19.83;46.19;101161.46;102793;277;97612;-62
2023/04/10 12:09:58;;;;;;;5.50;3.40;;;;;;;19.66;46.15;101155.36;102713;277;120330;-62
2023/04/10 12:12:43;;;;;;;3.20;2.60;;;;;;;19.63;45.99;101153.63;102747;277;105519;-59
2023/04/10 12:15:34;;;;;;;3.90;2.50;;;;;;;19.54;46.17;101148.94;102745;277;114052;-61
2023/04/10 12:18:18;;;;;;;3.70;2.50;;;;;;;19.47;46.32;101135.35;102728;277;93476;-62
2023/04/10 12:20:59;;;;;;;4.20;2.80;;;;;;;19.50;45.95;101131.95;102752;277;96608;-59
2023/04/10 12:23:37;;;;;;;4.80;3.00;;;;;;;19.68;46.20;101126.52;102726;277;120794;-59